Time;durP1;ratioP1;P1;durP2;ratioP2;P2;SDS_P1;SDS_P2;PMS_P1;PMS_P2;Temp;Humidity;BMP_temperature;BMP_pressure;BME280_temperature;BME280_humidity;BME280_pressure;Samples;Min_cycle;Max_cycle;Signal;HPM_P1;HPM_P2
2021/06/09 00:01:05;;;;;;;22.00;19.20;;;;;;;14.63;69.62;99128.70;124976;1092;64335;-84
2021/06/09 00:03:33;;;;;;;21.90;17.87;;;;;;;14.64;69.35;99133.08;124936;1093;64242;-84
2021/06/09 00:06:00;;;;;;;24.17;19.20;;;;;;;14.64;69.32;99133.96;124983;1093;64268;-84
2021/06/09 00:08:27;;;;;;;22.73;17.43;;;;;;;14.61;69.59;99133.34;124922;1093;64453;-85
2021/06/09 00:10:56;;;;;;;21.10;18.05;;;;;;;14.57;69.65;99135.42;124945;1092;64332;-84
2021/06/09 00:13:26;;;;;;;19.50;17.40;;;;;;;14.53;69.61;99133.11;124950;1093;64290;-84
2021/06/09 00:15:55;;;;;;;22.07;17.43;;;;;;;14.50;69.80;99126.13;124988;1093;64248;-83
2021/06/09 00:18:22;;;;;;;21.05;17.05;;;;;;;14.48;69.85;99128.95;124916;1093;64309;-84
2021/06/09 00:20:50;;;;;;;19.83;17.10;;;;;;;14.50;69.92;99131.50;124869;1093;64434;-84
2021/06/09 00:23:20;;;;;;;20.03;16.63;;;;;;;14.48;70.08;99128.95;124893;1093;64290;-84
2021/06/09 00:25:51;;;;;;;21.70;17.08;;;;;;;14.46;70.12;99128.22;125069;1092;64273;-84
2021/06/09 00:28:19;;;;;;;21.10;16.53;;;;;;;14.41;70.05;99121.53;124961;1093;64380;-84
2021/06/09 00:30:47;;;;;;;20.73;16.03;;;;;;;14.35;70.13;99128.25;124865;1093;64283;-84
2021/06/09 00:33:17;;;;;;;19.07;15.93;;;;;;;14.31;70.41;99132.13;124914;1093;64293;-83
2021/06/09 00:35:44;;;;;;;22.53;17.43;;;;;;;14.24;70.34;99126.42;124945;1093;64428;-84
2021/06/09 00:38:12;;;;;;;20.27;17.53;;;;;;;14.21;70.42;99123.97;124872;1093;64245;-84
2021/06/09 00:40:39;;;;;;;19.20;16.97;;;;;;;14.17;70.55;99135.08;124937;1093;64284;-84
2021/06/09 00:43:19;;;;;;;19.63;17.10;;;;;;;14.14;70.89;99132.61;125027;1093;64418;-84
2021/06/09 00:45:57;;;;;;;18.60;16.70;;;;;;;14.09;70.86;99135.69;125000;1093;64260;-83
2021/06/09 00:48:30;;;;;;;20.70;16.80;;;;;;;14.03;70.86;99138.83;124963;1093;64338;-83
2021/06/09 00:51:07;;;;;;;19.65;16.25;;;;;;;14.01;71.07;99143.48;124941;1093;64387;-84
2021/06/09 00:53:36;;;;;;;18.37;15.93;;;;;;;14.01;71.15;99146.16;124979;1093;64287;-84
2021/06/09 00:56:14;;;;;;;20.17;17.33;;;;;;;14.00;71.28;99139.92;124986;1093;64281;-84
2021/06/09 00:58:45;;;;;;;20.30;17.35;;;;;;;14.03;71.32;99146.86;124936;1093;64386;-84
2021/06/09 01:01:13;;;;;;;18.27;16.30;;;;;;;14.00;71.30;99134.56;124959;1093;64424;-83
2021/06/09 01:03:41;;;;;;;17.73;15.83;;;;;;;13.97;71.31;99139.32;124884;1092;64379;-85
2021/06/09 01:06:08;;;;;;;20.85;17.40;;;;;;;13.96;71.45;99132.27;124867;1093;65950;-83
2021/06/09 01:08:37;;;;;;;21.27;16.37;;;;;;;13.92;71.45;99128.95;125007;1093;64309;-84
2021/06/09 01:11:25;;;;;;;25.60;18.50;;;;;;;13.91;71.67;99137.98;124959;1093;64405;-84
2021/06/09 01:13:53;;;;;;;22.30;17.83;;;;;;;13.89;71.81;99125.67;124926;1093;64281;-84
2021/06/09 01:16:23;;;;;;;21.33;18.93;;;;;;;13.90;71.89;99135.41;124967;1093;64399;-83
2021/06/09 01:18:51;;;;;;;;;;;;;;;13.91;71.73;99139.81;125042;1093;64280;-84
2021/06/09 01:21:29;;;;;;;19.20;16.75;;;;;;;13.89;71.87;99131.88;124920;1093;64268;-84
2021/06/09 01:23:57;;;;;;;20.60;17.17;;;;;;;13.91;71.88;99134.45;124877;1093;64759;-85
2021/06/09 01:26:26;;;;;;;20.87;18.07;;;;;;;13.90;71.95;99130.05;125014;1093;64392;-85
2021/06/09 01:28:55;;;;;;;19.13;17.10;;;;;;;13.91;72.17;99148.70;124957;1093;64188;-83
2021/06/09 01:31:26;;;;;;;20.20;16.60;;;;;;;13.92;72.42;99138.83;124940;1093;64284;-85
2021/06/09 01:33:54;;;;;;;21.50;18.00;;;;;;;13.88;72.36;99134.70;124946;1093;64273;-84
2021/06/09 01:36:23;;;;;;;22.37;18.70;;;;;;;13.86;72.67;99142.00;124971;1093;64295;-85
2021/06/09 01:38:51;;;;;;;22.13;19.70;;;;;;;13.82;72.66;99128.84;124970;1093;64312;-83
2021/06/09 01:41:26;;;;;;;22.73;18.93;;;;;;;13.81;72.81;99136.98;124969;1093;64175;-83
2021/06/09 01:43:53;;;;;;;24.10;19.07;;;;;;;13.82;73.06;99133.33;124919;1093;64213;-84
2021/06/09 01:46:21;;;;;;;23.23;19.87;;;;;;;13.83;73.19;99135.90;124933;1093;64210;-84
2021/06/09 01:48:50;;;;;;;21.00;18.80;;;;;;;13.83;73.21;99137.73;124902;1093;64422;-85
2021/06/09 01:51:18;;;;;;;22.23;19.33;;;;;;;13.82;73.13;99131.53;124883;1093;64295;-84
2021/06/09 01:53:46;;;;;;;21.97;19.60;;;;;;;13.86;73.12;99125.92;124918;1093;64264;-84
2021/06/09 01:56:14;;;;;;;21.07;18.93;;;;;;;13.89;73.59;99123.00;125009;1093;64188;-84
2021/06/09 01:58:41;;;;;;;21.40;18.47;;;;;;;13.89;73.18;99120.32;124873;1093;64377;-84
2021/06/09 02:01:11;;;;;;;23.17;19.03;;;;;;;13.90;73.44;99124.69;124970;1093;64469;-85
2021/06/09 02:03:38;;;;;;;;;;;;;;;13.91;73.55;99126.41;125025;1093;64310;-84
2021/06/09 02:06:06;;;;;;;22.37;18.97;;;;;;;13.92;73.70;99125.43;124910;1093;64287;-84
2021/06/09 02:08:33;;;;;;;21.93;19.00;;;;;;;13.93;73.70;99127.13;124954;1093;64368;-84
2021/06/09 02:11:00;;;;;;;20.73;16.80;;;;;;;13.93;73.80;99125.33;124912;1092;64294;-85
2021/06/09 02:13:30;;;;;;;21.33;17.63;;;;;;;13.92;73.70;99120.92;124871;1093;64364;-84
2021/06/09 02:16:00;;;;;;;20.05;17.95;;;;;;;13.89;73.75;99120.32;124914;1093;64405;-84
2021/06/09 02:18:28;;;;;;;22.20;18.38;;;;;;;13.87;73.82;99124.94;125047;1093;64334;-84
2021/06/09 02:20:59;;;;;;;23.23;18.60;;;;;;;13.89;73.79;99129.20;124929;1093;64188;-85
2021/06/09 02:23:29;;;;;;;21.10;18.00;;;;;;;13.91;73.61;99123.73;125008;1093;64194;-85
2021/06/09 02:25:59;;;;;;;20.90;18.03;;;;;;;13.95;73.64;99120.67;124892;1093;64605;-85
2021/06/09 02:28:30;;;;;;;23.13;18.18;;;;;;;13.97;73.59;99126.77;124835;1093;64255;-85
2021/06/09 02:30:58;;;;;;;22.80;17.80;;;;;;;14.00;73.77;99133.71;124873;1093;64341;-85
2021/06/09 02:33:26;;;;;;;19.60;16.80;;;;;;;14.02;73.65;99132.63;124967;1093;64606;-84
2021/06/09 02:35:55;;;;;;;18.20;16.30;;;;;;;14.03;73.84;99128.11;124904;1093;64222;-85
2021/06/09 02:38:23;;;;;;;19.23;16.30;;;;;;;14.04;74.01;99128.00;124928;1092;64283;-86
2021/06/09 02:40:55;;;;;;;21.77;17.07;;;;;;;14.07;73.98;99128.73;125015;1093;64338;-84
2021/06/09 02:43:30;;;;;;;20.73;16.27;;;;;;;14.10;73.61;99132.02;124952;1091;64268;-85
2021/06/09 02:46:21;;;;;;;19.10;16.45;;;;;;;14.12;73.66;99127.39;125058;1093;64265;-85
2021/06/09 02:48:55;;;;;;;25.23;18.13;;;;;;;14.11;73.57;99135.55;124851;1093;64290;-85
2021/06/09 02:51:27;;;;;;;26.40;23.47;;;;;;;14.12;73.82;99131.91;124988;1092;64293;-85
2021/06/09 02:54:30;;;;;;;32.13;28.27;;;;;;;14.13;74.34;99139.81;124869;1093;64422;-84
2021/06/09 02:57:35;;;;;;;22.35;18.90;;;;;;;14.20;74.36;99141.03;124866;1093;64344;-84
2021/06/09 03:00:11;;;;;;;22.53;19.27;;;;;;;14.22;74.30;99141.77;124938;1093;64159;-84
2021/06/09 03:03:26;;;;;;;20.43;17.73;;;;;;;14.25;74.30;99138.84;124915;1093;64281;-85
2021/06/09 03:06:03;;;;;;;22.17;18.43;;;;;;;14.37;74.22;99145.03;124936;1093;64389;-86
2021/06/09 03:08:41;;;;;;;23.07;18.03;;;;;;;14.44;74.18;99145.41;124872;1093;64412;-85
2021/06/09 03:11:18;;;;;;;22.23;18.33;;;;;;;14.54;73.98;99134.84;124881;1093;64310;-85
2021/06/09 03:16:28;;;;;;;19.67;16.10;;;;;;;14.62;73.66;99135.06;124852;1093;64265;-84
2021/06/09 03:19:04;;;;;;;19.80;17.30;;;;;;;14.68;73.73;99129.19;124958;1093;64284;-84
2021/06/09 03:21:39;;;;;;;21.50;17.57;;;;;;;14.74;73.69;99134.04;124902;1093;64402;-85
2021/06/09 03:24:21;;;;;;;22.40;18.55;;;;;;;14.75;73.47;99133.08;124926;1093;64351;-84
2021/06/09 03:27:08;;;;;;;21.10;18.80;;;;;;;14.84;73.29;99136.83;124950;1093;64216;-84
2021/06/09 03:29:43;;;;;;;22.73;18.73;;;;;;;14.86;72.99;99133.04;124885;1093;64370;-84
2021/06/09 03:32:32;;;;;;;20.40;18.30;;;;;;;15.21;72.73;99131.93;124905;1093;64354;-85
2021/06/09 03:35:14;;;;;;;21.47;18.60;;;;;;;16.22;71.30;99133.17;124877;1091;64273;-86
2021/06/09 03:37:45;;;;;;;20.50;18.43;;;;;;;16.98;69.94;99135.37;124933;1093;64268;-85
2021/06/09 03:40:20;;;;;;;23.87;21.50;;;;;;;17.73;68.87;99133.80;124939;1093;64288;-85
2021/06/09 03:42:52;;;;;;;26.40;23.70;;;;;;;18.50;67.03;99131.84;124959;1093;64306;-85
2021/06/09 03:45:26;;;;;;;33.93;29.50;;;;;;;19.13;65.77;99121.09;125016;1093;64344;-85
2021/06/09 03:47:55;;;;;;;28.23;25.10;;;;;;;19.71;64.95;99122.46;125044;1093;64348;-84
2021/06/09 03:50:24;;;;;;;28.93;25.93;;;;;;;20.24;63.81;99126.00;124979;1093;65842;-84
2021/06/09 03:52:53;;;;;;;28.70;25.75;;;;;;;20.65;62.40;99118.09;125082;1093;64191;-85
2021/06/09 03:55:24;;;;;;;29.33;25.93;;;;;;;21.00;61.30;99120.54;125006;1093;64364;-84
2021/06/09 03:57:53;;;;;;;26.13;23.33;;;;;;;21.28;60.72;99117.55;125006;1093;64428;-84
2021/06/09 04:00:23;;;;;;;26.48;23.78;;;;;;;21.33;60.25;99120.60;124963;1093;64290;-83
2021/06/09 04:02:51;;;;;;;;;;;;;;;21.85;59.10;99120.28;124995;1093;64242;-83
2021/06/09 04:05:21;;;;;;;28.40;22.20;;;;;;;22.34;58.18;99116.61;124960;1091;64284;-85
2021/06/09 04:07:50;;;;;;;23.03;20.77;;;;;;;22.75;57.17;99111.84;125006;1093;64300;-84
2021/06/09 04:10:21;;;;;;;22.60;20.30;;;;;;;23.21;56.14;99121.95;125001;1093;64288;-85
2021/06/09 04:12:48;;;;;;;22.10;19.73;;;;;;;23.60;55.71;99116.38;125025;1093;64380;-85
2021/06/09 04:15:18;;;;;;;21.17;18.77;;;;;;;23.97;54.95;99113.86;124911;1093;64290;-85
2021/06/09 04:17:49;;;;;;;20.20;17.00;;;;;;;24.12;54.17;99120.16;125035;1093;64271;-85
2021/06/09 04:20:25;;;;;;;18.47;16.77;;;;;;;24.37;53.63;99126.16;124961;1093;64188;-85
2021/06/09 04:22:53;;;;;;;19.83;17.73;;;;;;;24.64;52.93;99118.38;124859;1093;64310;-84
2021/06/09 04:25:21;;;;;;;18.90;15.85;;;;;;;24.94;52.32;99122.73;124800;1092;64265;-84
2021/06/09 04:27:49;;;;;;;18.07;14.73;;;;;;;25.09;51.97;99116.38;124990;1093;64284;-84
2021/06/09 04:30:18;;;;;;;16.90;15.27;;;;;;;25.30;51.49;99123.77;124909;1093;64287;-84
2021/06/09 04:32:51;;;;;;;16.67;14.70;;;;;;;25.57;50.92;99116.70;124944;1091;64191;-84
2021/06/09 04:35:21;;;;;;;17.00;15.30;;;;;;;25.89;50.25;99119.93;124974;1093;64252;-84
2021/06/09 04:37:50;;;;;;;16.90;15.20;;;;;;;26.06;49.66;99122.13;124947;1093;64217;-85
2021/06/09 04:40:25;;;;;;;14.90;13.40;;;;;;;26.12;48.99;99128.71;124986;1092;64369;-85
2021/06/09 04:42:54;;;;;;;17.93;15.00;;;;;;;26.27;48.20;99125.84;124974;1093;64191;-85
2021/06/09 04:45:24;;;;;;;16.48;14.85;;;;;;;26.30;47.95;99119.13;125041;1093;64287;-84
2021/06/09 04:47:53;;;;;;;16.60;15.00;;;;;;;26.54;47.63;99129.63;125064;1093;64293;-85
2021/06/09 04:50:23;;;;;;;16.37;14.60;;;;;;;26.73;47.08;99128.02;125128;1093;64406;-85
2021/06/09 04:52:51;;;;;;;16.97;14.83;;;;;;;26.87;46.59;99128.91;125213;1093;64252;-85
2021/06/09 04:55:20;;;;;;;17.20;15.70;;;;;;;26.99;46.35;99129.15;125237;1092;64268;-85
2021/06/09 04:57:48;;;;;;;17.57;15.77;;;;;;;27.18;46.31;99130.31;125154;1093;64249;-85
2021/06/09 05:00:16;;;;;;;16.25;14.80;;;;;;;27.30;45.67;99134.11;125079;1093;64226;-85
2021/06/09 05:02:44;;;;;;;16.00;14.30;;;;;;;27.38;45.16;99127.59;124949;1093;64307;-85
2021/06/09 05:05:12;;;;;;;15.33;13.87;;;;;;;27.46;44.73;99133.73;124940;1093;64265;-85
2021/06/09 05:07:39;;;;;;;18.73;14.07;;;;;;;27.53;44.36;99131.83;124973;1093;64309;-85
2021/06/09 05:10:08;;;;;;;15.33;13.73;;;;;;;27.64;43.88;99133.09;124963;1093;64241;-85
2021/06/09 05:12:44;;;;;;;29.63;15.60;;;;;;;27.71;43.50;99131.21;124946;1093;64737;-85
2021/06/09 05:15:13;;;;;;;19.47;14.10;;;;;;;27.69;43.05;99125.09;125004;1093;64303;-86
2021/06/09 05:17:49;;;;;;;15.77;13.30;;;;;;;27.82;42.65;99131.67;125017;1093;64346;-84
2021/06/09 05:20:28;;;;;;;14.87;13.33;;;;;;;27.78;42.30;99136.70;125049;1093;64245;-85
2021/06/09 05:23:02;;;;;;;14.00;12.80;;;;;;;27.66;41.84;99139.21;125028;1093;64306;-85
2021/06/09 05:25:33;;;;;;;14.45;13.00;;;;;;;27.77;42.09;99138.58;125033;1093;64252;-85
2021/06/09 05:28:02;;;;;;;14.33;12.60;;;;;;;27.89;41.44;99143.48;125192;1093;64308;-85
2021/06/09 05:30:31;;;;;;;14.53;13.03;;;;;;;28.11;41.96;99138.60;125175;1093;64288;-85
2021/06/09 05:32:59;;;;;;;14.77;12.77;;;;;;;28.29;40.88;99143.43;125272;1093;64195;-85
2021/06/09 05:35:28;;;;;;;13.08;11.75;;;;;;;28.22;40.54;99143.42;125164;1093;64325;-85
2021/06/09 05:37:56;;;;;;;14.85;12.00;;;;;;;28.17;40.66;99138.61;124885;1093;64268;-85
2021/06/09 05:40:23;;;;;;;14.00;11.57;;;;;;;28.28;40.83;99145.33;125086;1092;64330;-85
2021/06/09 05:42:51;;;;;;;19.95;11.55;;;;;;;28.40;39.83;99146.34;124875;1093;64331;-85
2021/06/09 05:45:29;;;;;;;13.37;12.00;;;;;;;28.35;39.90;99146.14;125005;1091;64191;-86
2021/06/09 05:47:57;;;;;;;11.47;10.47;;;;;;;28.31;39.88;99144.90;125117;1093;64329;-86
2021/06/09 05:50:28;;;;;;;14.57;12.07;;;;;;;28.24;39.57;99144.06;124880;1093;64276;-88
2021/06/09 05:52:58;;;;;;;16.00;10.23;;;;;;;28.10;39.85;99143.25;124947;1093;64364;-85
2021/06/09 05:55:28;;;;;;;13.60;10.80;;;;;;;27.98;40.19;99143.03;125107;1093;64274;-85
2021/06/09 05:58:02;;;;;;;13.00;10.77;;;;;;;28.03;40.04;99144.30;124961;1092;64285;-85
2021/06/09 06:00:31;;;;;;;13.47;11.03;;;;;;;28.17;40.05;99145.96;125004;1092;64328;-85
2021/06/09 06:03:03;;;;;;;14.20;11.20;;;;;;;28.39;40.00;99155.63;125050;1093;64256;-84
2021/06/09 06:05:35;;;;;;;12.13;10.93;;;;;;;28.60;39.25;99150.98;125098;1093;64696;-84
2021/06/09 06:08:04;;;;;;;11.03;9.93;;;;;;;28.54;39.02;99152.69;125069;1093;64268;-84
2021/06/09 06:10:31;;;;;;;13.23;11.33;;;;;;;28.39;39.07;99150.16;125047;1093;64262;-84
2021/06/09 06:12:59;;;;;;;12.40;11.10;;;;;;;28.49;39.66;99162.59;124992;1093;64265;-84
2021/06/09 06:15:27;;;;;;;12.63;10.83;;;;;;;28.66;39.74;99153.69;125066;1093;64268;-85
2021/06/09 06:17:54;;;;;;;15.33;11.80;;;;;;;28.68;39.04;99152.64;125105;1092;64415;-85
2021/06/09 06:20:23;;;;;;;13.07;11.33;;;;;;;28.56;39.88;99158.77;125129;1093;64271;-85
2021/06/09 06:22:52;;;;;;;12.15;10.60;;;;;;;28.53;38.92;99163.86;125096;1093;64364;-85
2021/06/09 06:25:23;;;;;;;14.30;12.15;;;;;;;27.97;39.38;99154.22;125161;1093;64300;-85
2021/06/09 06:27:53;;;;;;;11.90;10.80;;;;;;;27.95;40.20;99159.89;125134;1092;64287;-84
2021/06/09 06:30:23;;;;;;;11.93;10.78;;;;;;;27.97;39.86;99155.05;125456;1092;64273;-85
2021/06/09 06:32:54;;;;;;;12.93;11.33;;;;;;;28.05;40.58;99159.48;126431;1093;64281;-85
2021/06/09 06:35:26;;;;;;;15.07;11.50;;;;;;;28.26;40.29;99158.41;125347;1093;64287;-86
2021/06/09 06:37:54;;;;;;;14.80;11.23;;;;;;;28.22;40.43;99162.61;125096;1092;64212;-85
2021/06/09 06:40:28;;;;;;;15.20;11.05;;;;;;;28.53;40.46;99161.95;125100;1093;64284;-84
2021/06/09 06:42:56;;;;;;;15.27;11.70;;;;;;;28.72;40.64;99162.11;125109;1093;64275;-85
2021/06/09 06:45:25;;;;;;;13.23;12.03;;;;;;;28.80;40.31;99162.70;125025;1092;64287;-85
2021/06/09 06:47:54;;;;;;;12.13;11.13;;;;;;;28.84;40.08;99155.73;125075;1093;64236;-84
2021/06/09 06:50:24;;;;;;;15.00;11.35;;;;;;;28.81;39.78;99153.43;125028;1093;64185;-85
2021/06/09 06:52:52;;;;;;;15.20;11.73;;;;;;;28.74;40.30;99163.58;124953;1093;64294;-85
2021/06/09 06:55:22;;;;;;;12.93;11.43;;;;;;;28.92;40.52;99162.05;125235;1093;64264;-85
2021/06/09 06:57:50;;;;;;;11.97;10.77;;;;;;;28.77;39.93;99162.30;125350;1092;64401;-85
2021/06/09 07:00:21;;;;;;;11.47;10.17;;;;;;;28.63;40.12;99170.58;125136;1093;64184;-85
2021/06/09 07:02:52;;;;;;;10.70;9.60;;;;;;;28.54;40.46;99160.91;125040;1093;64275;-85
2021/06/09 07:05:21;;;;;;;13.00;9.23;;;;;;;28.45;39.64;99171.25;125042;1093;64381;-86
2021/06/09 07:07:50;;;;;;;16.10;9.57;;;;;;;28.41;39.91;99160.89;124904;1093;64211;-86
2021/06/09 07:10:19;;;;;;;16.93;9.40;;;;;;;28.34;40.26;99158.17;124961;1092;64840;-85
2021/06/09 07:12:47;;;;;;;13.55;8.93;;;;;;;28.48;40.29;99156.27;124980;1093;64355;-85
2021/06/09 07:15:17;;;;;;;;;;;;;;;28.50;39.48;99167.03;124927;1093;64827;-85
2021/06/09 07:17:49;;;;;;;11.30;8.17;;;;;;;28.12;39.30;99164.94;125045;1093;64425;-85
2021/06/09 07:20:22;;;;;;;9.50;8.50;;;;;;;27.92;39.27;99160.32;125018;1092;64395;-85
2021/06/09 07:22:51;;;;;;;11.33;8.63;;;;;;;27.53;39.49;99174.80;125147;1092;64156;-85
2021/06/09 07:25:20;;;;;;;9.85;8.70;;;;;;;27.41;40.13;99170.97;125028;1093;64331;-83
2021/06/09 07:27:52;;;;;;;12.03;9.00;;;;;;;27.45;40.22;99161.30;124984;1092;64188;-85
2021/06/09 07:30:26;;;;;;;12.50;10.20;;;;;;;27.11;40.54;99171.28;125101;1093;64283;-85
2021/06/09 07:32:54;;;;;;;27.55;10.05;;;;;;;26.61;41.14;99166.02;125098;1093;64367;-85
2021/06/09 07:35:21;;;;;;;11.60;8.70;;;;;;;26.42;42.13;99174.92;125255;1093;64306;-85
2021/06/09 07:37:54;;;;;;;9.73;8.87;;;;;;;26.37;42.35;99175.52;125092;1093;64652;-85
2021/06/09 07:40:25;;;;;;;11.07;8.77;;;;;;;26.32;42.93;99179.90;125120;1093;64367;-85
2021/06/09 07:42:57;;;;;;;12.60;9.80;;;;;;;26.16;42.36;99178.31;125000;1093;64280;-85
2021/06/09 07:45:27;;;;;;;10.90;9.70;;;;;;;25.97;42.81;99179.86;124954;1093;64309;-85
2021/06/09 07:47:57;;;;;;;10.60;9.57;;;;;;;25.74;43.02;99183.60;124998;1093;64279;-85
2021/06/09 07:50:29;;;;;;;13.03;9.47;;;;;;;25.74;43.69;99178.14;125048;1093;64284;-84
2021/06/09 07:53:05;;;;;;;10.30;9.30;;;;;;;25.76;43.60;99178.80;124925;1093;64245;-84
2021/06/09 07:55:38;;;;;;;14.80;9.67;;;;;;;25.55;44.05;99174.19;125001;1093;64360;-85
2021/06/09 07:58:05;;;;;;;9.50;8.40;;;;;;;25.68;44.20;99173.48;124975;1093;64373;-85
2021/06/09 08:00:36;;;;;;;12.90;9.53;;;;;;;25.68;44.29;99176.21;124904;1092;64267;-85
2021/06/09 08:03:04;;;;;;;12.90;8.80;;;;;;;25.79;44.22;99164.75;124863;1093;64290;-85
2021/06/09 08:05:32;;;;;;;9.97;8.93;;;;;;;25.90;43.99;99165.30;125071;1093;64379;-85
2021/06/09 08:07:59;;;;;;;9.90;8.65;;;;;;;25.73;43.40;99167.44;124972;1091;64353;-85
2021/06/09 08:10:27;;;;;;;13.10;8.45;;;;;;;25.53;43.08;99173.53;125067;1093;64268;-84
2021/06/09 08:12:57;;;;;;;11.37;8.03;;;;;;;25.50;43.69;99167.63;124998;1093;64265;-84
2021/06/09 08:15:25;;;;;;;11.97;8.20;;;;;;;25.65;43.79;99167.58;125085;1093;64284;-85
2021/06/09 08:17:53;;;;;;;13.00;8.83;;;;;;;25.79;43.63;99166.64;124970;1092;64293;-85
2021/06/09 08:20:24;;;;;;;12.83;8.17;;;;;;;25.82;43.00;99156.16;125073;1093;64466;-85
2021/06/09 08:22:52;;;;;;;10.90;8.03;;;;;;;25.57;43.42;99155.75;124989;1093;64393;-85
2021/06/09 08:25:24;;;;;;;9.30;7.27;;;;;;;25.50;43.69;99163.02;124959;1093;64293;-85
2021/06/09 08:27:53;;;;;;;7.85;7.05;;;;;;;25.60;43.91;99168.16;125011;1093;64271;-85
2021/06/09 08:30:22;;;;;;;9.08;7.70;;;;;;;25.81;44.29;99159.95;124870;1093;64235;-85
2021/06/09 08:32:50;;;;;;;9.40;7.63;;;;;;;25.91;43.43;99159.65;125084;1093;64214;-85
2021/06/09 08:35:18;;;;;;;8.93;7.83;;;;;;;26.06;42.77;99159.53;124920;1092;64265;-85
2021/06/09 08:37:46;;;;;;;7.83;6.07;;;;;;;26.11;41.95;99162.52;124949;1093;64268;-84
2021/06/09 08:40:13;;;;;;;11.60;7.47;;;;;;;26.22;42.31;99159.22;124935;1093;64300;-85
2021/06/09 08:42:42;;;;;;;12.77;7.40;;;;;;;26.38;41.96;99154.49;124989;1092;64287;-85
2021/06/09 08:45:11;;;;;;;11.45;6.38;;;;;;;26.62;41.56;99154.05;124992;1093;64275;-85
2021/06/09 08:47:40;;;;;;;10.45;6.58;;;;;;;26.86;41.11;99151.85;125079;1093;64272;-85
2021/06/09 08:50:12;;;;;;;7.57;6.60;;;;;;;26.92;40.87;99151.86;125049;1093;64271;-85
2021/06/09 08:52:48;;;;;;;6.53;5.93;;;;;;;27.18;40.83;99146.73;125039;1093;64284;-85
2021/06/09 08:55:18;;;;;;;6.73;6.03;;;;;;;27.25;40.19;99150.30;124951;1093;64268;-85
2021/06/09 08:57:46;;;;;;;6.43;5.33;;;;;;;27.46;39.11;99161.11;125015;1093;64284;-85
2021/06/09 09:00:16;;;;;;;7.03;5.30;;;;;;;27.51;39.00;99149.52;125100;1093;64398;-85
2021/06/09 09:02:46;;;;;;;7.37;5.77;;;;;;;27.42;37.72;99145.30;125087;1093;64287;-85
2021/06/09 09:05:14;;;;;;;5.60;4.90;;;;;;;27.57;37.80;99149.53;125736;1093;64191;-86
2021/06/09 09:07:43;;;;;;;5.37;4.87;;;;;;;27.64;37.63;99132.27;125625;1093;64273;-84
2021/06/09 09:10:15;;;;;;;5.87;4.93;;;;;;;27.61;38.13;99147.21;125715;1093;64244;-85
2021/06/09 09:12:43;;;;;;;5.57;4.53;;;;;;;27.44;37.27;99145.95;125791;1093;64431;-85
2021/06/09 09:15:11;;;;;;;8.45;4.70;;;;;;;27.24;37.71;99145.89;126035;1093;64306;-84
2021/06/09 09:17:52;;;;;;;9.57;4.87;;;;;;;27.28;38.46;99138.97;125001;1093;64297;-85
2021/06/09 09:20:41;;;;;;;5.27;4.60;;;;;;;27.47;38.80;99148.27;125001;1093;64213;-85
2021/06/09 09:23:25;;;;;;;5.53;4.83;;;;;;;27.86;37.43;99138.39;124999;1093;64240;-84
2021/06/09 09:25:55;;;;;;;7.80;4.83;;;;;;;28.03;37.12;99145.14;124963;1093;64450;-85
2021/06/09 09:28:42;;;;;;;4.83;4.40;;;;;;;28.26;36.61;99147.44;124972;1093;64272;-86
2021/06/09 09:31:11;;;;;;;8.63;4.40;;;;;;;28.48;36.11;99139.81;124977;1093;64279;-86
2021/06/09 09:33:39;;;;;;;6.50;4.13;;;;;;;28.56;35.26;99150.55;125091;1093;64274;-85
2021/06/09 09:36:30;;;;;;;4.10;3.77;;;;;;;28.61;34.19;99141.69;124993;1093;64302;-85
2021/06/09 09:38:59;;;;;;;6.17;4.03;;;;;;;28.51;34.64;99144.03;124993;1093;64293;-86
2021/06/09 09:41:32;;;;;;;5.88;4.23;;;;;;;28.69;34.06;99143.34;124846;1093;64267;-86
2021/06/09 09:44:08;;;;;;;6.63;4.27;;;;;;;28.85;33.93;99140.95;124941;1093;64271;-86
2021/06/09 09:46:51;;;;;;;5.83;4.43;;;;;;;28.78;33.21;99133.80;124866;1093;64245;-86
2021/06/09 09:49:20;;;;;;;8.50;4.50;;;;;;;28.88;33.30;99139.67;124899;1093;64328;-84
2021/06/09 09:51:50;;;;;;;4.40;4.00;;;;;;;28.83;32.74;99131.25;124955;1093;64364;-85
2021/06/09 09:54:27;;;;;;;4.63;3.87;;;;;;;28.58;32.33;99129.25;125073;1093;64271;-84
2021/06/09 09:56:58;;;;;;;4.70;4.13;;;;;;;28.49;32.44;99130.55;125008;1093;64299;-84
2021/06/09 09:59:27;;;;;;;6.40;4.33;;;;;;;28.28;32.37;99136.24;124974;1093;64428;-85
2021/06/09 10:01:58;;;;;;;4.40;3.95;;;;;;;28.10;32.17;99129.55;124942;1093;64272;-85
2021/06/09 10:04:37;;;;;;;4.08;3.75;;;;;;;27.98;32.46;99129.33;125037;1093;64306;-85
2021/06/09 10:07:08;;;;;;;4.77;3.87;;;;;;;28.12;32.80;99129.31;125024;1092;64390;-85
2021/06/09 10:09:38;;;;;;;4.65;4.25;;;;;;;28.31;31.98;99128.45;125051;1093;64191;-84
2021/06/09 10:12:14;;;;;;;4.50;4.20;;;;;;;28.57;33.45;99127.57;124986;1093;64188;-85
2021/06/09 10:14:49;;;;;;;5.80;4.33;;;;;;;28.88;33.58;99128.70;125042;1093;64303;-85
2021/06/09 10:17:18;;;;;;;4.70;4.30;;;;;;;28.83;33.30;99123.02;124980;1093;64370;-85
2021/06/09 10:19:50;;;;;;;5.77;4.93;;;;;;;28.61;34.35;99117.00;125012;1093;64312;-85
2021/06/09 10:22:28;;;;;;;6.93;6.23;;;;;;;28.47;34.60;99121.70;125059;1093;64287;-83
2021/06/09 10:25:06;;;;;;;7.90;4.57;;;;;;;28.27;34.31;99127.19;124993;1092;64308;-84
2021/06/09 10:27:48;;;;;;;7.13;4.17;;;;;;;28.32;33.01;99121.91;124966;1093;64306;-85
2021/06/09 10:30:16;;;;;;;4.70;4.35;;;;;;;28.19;32.64;99121.94;125082;1093;64345;-85
2021/06/09 10:32:48;;;;;;;4.87;4.30;;;;;;;28.14;32.87;99129.95;125026;1093;64390;-85
2021/06/09 10:35:20;;;;;;;6.63;4.03;;;;;;;28.22;33.46;99122.34;125092;1093;64219;-85
2021/06/09 10:37:49;;;;;;;8.90;5.80;;;;;;;28.58;34.02;99120.19;125110;1093;64268;-84
2021/06/09 10:40:18;;;;;;;8.08;5.83;;;;;;;28.93;34.31;99117.91;125064;1093;64298;-84
2021/06/09 10:42:48;;;;;;;;;;;;;;;28.73;34.66;99117.19;125117;1093;64210;-85
2021/06/09 10:45:17;;;;;;;8.13;6.23;;;;;;;28.36;34.22;99127.81;124962;1092;64262;-84
2021/06/09 10:47:46;;;;;;;7.67;5.83;;;;;;;28.03;35.06;99125.13;124939;1093;64284;-84
2021/06/09 10:50:15;;;;;;;6.25;5.53;;;;;;;27.81;35.73;99125.36;124973;1093;64280;-84
2021/06/09 10:52:44;;;;;;;8.45;6.10;;;;;;;27.51;36.13;99122.97;125017;1093;64337;-85
2021/06/09 10:55:11;;;;;;;7.88;6.10;;;;;;;27.30;36.75;99128.63;124992;1094;64264;-85
2021/06/09 10:57:39;;;;;;;7.40;6.20;;;;;;;27.20;37.70;99125.45;124982;1093;64389;-84
2021/06/09 11:00:09;;;;;;;7.57;6.80;;;;;;;27.19;37.41;99124.61;124911;1093;64339;-85
2021/06/09 11:02:38;;;;;;;6.70;6.10;;;;;;;27.24;37.39;99116.63;125029;1093;64298;-85
2021/06/09 11:05:08;;;;;;;11.20;6.57;;;;;;;27.46;37.79;99113.70;125098;1093;64273;-86
2021/06/09 11:07:41;;;;;;;10.53;5.93;;;;;;;27.71;37.47;99102.99;125075;1093;64431;-84
2021/06/09 11:10:39;;;;;;;7.47;5.73;;;;;;;27.94;37.45;99105.34;125066;1093;64265;-85
2021/06/09 11:13:09;;;;;;;7.73;5.30;;;;;;;28.33;37.01;99098.07;124998;1093;64236;-84
2021/06/09 11:15:39;;;;;;;5.43;5.00;;;;;;;28.66;36.44;99098.00;125118;1093;64287;-84
2021/06/09 11:18:15;;;;;;;5.80;4.80;;;;;;;28.95;36.00;99093.01;124970;1093;64280;-84
2021/06/09 11:20:48;;;;;;;7.65;3.90;;;;;;;29.07;34.99;99088.55;125068;1093;64283;-85
2021/06/09 11:23:29;;;;;;;6.47;4.30;;;;;;;28.95;34.23;99082.88;125092;1093;64188;-85
2021/06/09 11:25:57;;;;;;;6.87;4.87;;;;;;;28.68;33.12;99095.05;125036;1093;64293;-84
2021/06/09 11:28:33;;;;;;;6.03;4.37;;;;;;;28.26;32.63;99084.40;125092;1092;64281;-84
2021/06/09 11:31:03;;;;;;;6.90;4.10;;;;;;;27.77;33.52;99093.92;124907;1093;64280;-85
2021/06/09 11:34:04;;;;;;;6.47;5.03;;;;;;;27.49;34.15;99085.91;125028;1093;64354;-85
2021/06/09 11:36:39;;;;;;;5.70;4.30;;;;;;;27.36;34.67;99092.24;125000;1093;64245;-85
2021/06/09 11:39:19;;;;;;;5.03;4.63;;;;;;;27.31;34.48;99095.59;125011;1092;64307;-84